Time;durP1;ratioP1;P1;durP2;ratioP2;P2;SDS_P1;SDS_P2;PMS_P1;PMS_P2;Temp;Humidity;BMP_temperature;BMP_pressure;BME280_temperature;BME280_humidity;BME280_pressure;Samples;Min_cycle;Max_cycle;Signal;HPM_P1;HPM_P2
2021/06/02 00:02:20;;;;;;;8.25;4.60;;;;;;;12.07;64.59;99281.09;5013035;28;20034;-60
2021/06/02 00:04:47;;;;;;;6.18;4.60;;;;;;;11.85;66.00;99283.75;5013282;28;20026;-62
2021/06/02 00:07:19;;;;;;;8.85;4.68;;;;;;;11.70;66.22;99276.31;5011550;28;20235;-60
2021/06/02 00:09:44;;;;;;;8.88;4.75;;;;;;;11.85;64.79;99273.00;5013265;28;20025;-60
2021/06/02 00:12:10;;;;;;;6.50;4.47;;;;;;;11.91;65.47;99271.25;5011589;28;20037;-60
2021/06/02 00:14:36;;;;;;;8.43;4.50;;;;;;;11.85;65.38;99265.75;5013087;28;20084;-60
2021/06/02 00:17:01;;;;;;;7.75;5.10;;;;;;;11.90;64.27;99264.22;5012741;28;20104;-60
2021/06/02 00:19:27;;;;;;;6.53;4.65;;;;;;;11.90;65.71;99266.91;5013026;28;20049;-60
2021/06/02 00:21:53;;;;;;;6.38;4.57;;;;;;;11.95;64.12;99266.97;5011597;28;20033;-60
2021/06/02 00:24:18;;;;;;;5.38;4.30;;;;;;;11.78;64.98;99273.22;5013199;28;20030;-60
2021/06/02 00:26:44;;;;;;;7.55;4.93;;;;;;;11.70;65.28;99260.19;5012717;28;20562;-60
2021/06/02 00:29:09;;;;;;;5.55;4.20;;;;;;;11.66;64.99;99264.47;5012981;28;20026;-60
2021/06/02 00:31:53;;;;;;;8.32;4.32;;;;;;;11.72;64.85;99260.75;5012709;28;20042;-60
2021/06/02 00:34:22;;;;;;;8.23;4.57;;;;;;;11.82;63.80;99265.44;4994631;28;20026;-60
2021/06/02 00:36:48;;;;;;;5.90;4.50;;;;;;;11.73;65.61;99265.09;5012405;28;20045;-60
2021/06/02 00:39:13;;;;;;;7.85;4.55;;;;;;;11.65;64.78;99262.81;5013045;28;20464;-60
2021/06/02 00:41:40;;;;;;;7.25;4.63;;;;;;;11.44;66.29;99267.91;5012318;28;20117;-60
2021/06/02 00:44:10;;;;;;;7.70;4.60;;;;;;;11.49;66.94;99267.19;5011384;28;20097;-60
2021/06/02 00:46:38;;;;;;;7.00;4.57;;;;;;;11.43;66.64;99266.31;5012461;28;20030;-60
2021/06/02 00:49:05;;;;;;;10.55;4.38;;;;;;;11.40;65.93;99271.34;5012589;28;20026;-60
2021/06/02 00:51:30;;;;;;;7.82;4.97;;;;;;;11.37;66.37;99272.63;5012336;28;20126;-60
2021/06/02 00:53:56;;;;;;;5.05;4.22;;;;;;;11.35;66.24;99264.00;5011396;28;20460;-60
2021/06/02 00:56:29;;;;;;;6.07;4.80;;;;;;;11.32;66.87;99261.03;5010921;28;20515;-60
2021/06/02 00:58:54;;;;;;;7.68;4.80;;;;;;;11.17;67.91;99261.59;5011227;28;20050;-60
2021/06/02 01:01:20;;;;;;;8.52;4.97;;;;;;;11.11;68.43;99266.09;4994589;28;20412;-60
2021/06/02 01:03:45;;;;;;;6.35;4.70;;;;;;;11.09;68.71;99262.03;4994897;28;20026;-60
2021/06/02 01:06:11;;;;;;;8.30;5.00;;;;;;;11.14;67.47;99257.53;5010967;28;20105;-60
2021/06/02 01:08:37;;;;;;;7.20;5.15;;;;;;;11.12;67.04;99266.91;5011358;28;20021;-60
2021/06/02 01:11:03;;;;;;;6.00;4.70;;;;;;;11.14;67.62;99256.75;4994552;28;20037;-60
2021/06/02 01:13:29;;;;;;;11.20;5.38;;;;;;;11.18;66.91;99256.00;5012435;28;20025;-60
2021/06/02 01:15:54;;;;;;;9.60;4.97;;;;;;;11.18;66.87;99263.22;5012248;28;20066;-60
2021/06/02 01:18:20;;;;;;;6.72;4.72;;;;;;;11.07;67.99;99262.25;5012475;28;20361;-60
2021/06/02 01:20:45;;;;;;;7.43;4.75;;;;;;;11.05;67.96;99269.72;5010792;28;20092;-60
2021/06/02 01:23:11;;;;;;;6.70;5.05;;;;;;;11.06;67.34;99260.66;5012443;28;20440;-60
2021/06/02 01:25:37;;;;;;;6.13;4.60;;;;;;;11.11;67.60;99265.28;5011924;28;20037;-60
2021/06/02 01:28:04;;;;;;;6.60;5.20;;;;;;;11.02;69.16;99268.34;5012116;28;20105;-60
2021/06/02 01:30:29;;;;;;;7.35;5.60;;;;;;;10.94;68.06;99258.03;5010476;28;20125;-60
2021/06/02 01:33:07;;;;;;;7.47;5.22;;;;;;;10.84;68.04;99263.25;5012567;28;20164;-60
2021/06/02 01:35:47;;;;;;;7.95;5.30;;;;;;;10.68;68.53;99264.03;5010484;28;20091;-61
2021/06/02 01:38:22;;;;;;;7.43;5.20;;;;;;;10.75;68.54;99265.50;5010933;28;20033;-60
2021/06/02 01:41:05;;;;;;;7.53;5.30;;;;;;;10.78;69.69;99265.03;5011647;28;20041;-60
2021/06/02 01:43:57;;;;;;;7.78;5.13;;;;;;;10.62;69.55;99263.13;5012221;28;20026;-60
2021/06/02 01:46:44;;;;;;;8.80;5.60;;;;;;;10.65;68.90;99262.66;4996249;28;20045;-60
2021/06/02 01:49:44;;;;;;;8.65;5.45;;;;;;;10.71;68.52;99269.75;5015008;28;20030;-60
2021/06/02 01:52:28;;;;;;;8.23;5.32;;;;;;;10.70;69.07;99264.59;5015256;28;20045;-60
2021/06/02 01:55:14;;;;;;;7.78;5.88;;;;;;;10.68;68.56;99266.72;5015461;28;20108;-60
2021/06/02 01:58:22;;;;;;;9.73;5.72;;;;;;;10.63;68.74;99272.78;4994525;28;20133;-60
2021/06/02 02:00:56;;;;;;;9.18;6.13;;;;;;;10.39;72.85;99271.31;4960836;28;20109;-60
2021/06/02 02:03:31;;;;;;;7.75;5.20;;;;;;;10.39;70.08;99272.13;5009101;28;20034;-60
2021/06/02 02:06:30;;;;;;;8.57;5.70;;;;;;;10.26;70.36;99273.19;5014872;28;20504;-60
2021/06/02 02:09:03;;;;;;;7.85;5.63;;;;;;;10.19;71.02;99269.03;5014441;28;20487;-60
2021/06/02 02:11:36;;;;;;;6.93;5.20;;;;;;;10.13;71.39;99266.25;5015076;28;20614;-60
2021/06/02 02:14:09;;;;;;;6.22;5.40;;;;;;;10.14;71.39;99254.47;5015285;28;20472;-59
2021/06/02 02:17:02;;;;;;;7.18;5.50;;;;;;;10.10;71.26;99272.06;5014928;28;20038;-60
2021/06/02 02:19:43;;;;;;;8.00;5.43;;;;;;;10.04;72.46;99265.00;5015435;28;20050;-60
2021/06/02 02:22:46;;;;;;;6.50;5.22;;;;;;;9.90;72.54;99269.00;5013585;28;20050;-60
2021/06/02 02:25:27;;;;;;;12.10;5.70;;;;;;;9.78;73.03;99263.66;5013990;28;20034;-61
2021/06/02 02:27:58;;;;;;;;;;;;;;;9.75;73.26;99274.03;4998876;28;20077;-59
2021/06/02 02:31:11;;;;;;;7.00;5.70;;;;;;;9.82;73.30;99275.53;5013463;28;19917;-61
2021/06/02 02:33:49;;;;;;;7.95;5.88;;;;;;;9.73;72.77;99268.91;4993054;28;20026;-61
2021/06/02 02:36:20;;;;;;;7.65;5.90;;;;;;;9.71;73.20;99265.66;4992784;28;20085;-61
2021/06/02 02:39:05;;;;;;;6.75;5.57;;;;;;;9.60;73.50;99267.28;4996903;28;20395;-61
2021/06/02 02:41:55;;;;;;;10.55;5.75;;;;;;;9.60;73.24;99272.66;5013165;28;20042;-61
2021/06/02 02:44:27;;;;;;;7.07;5.60;;;;;;;9.62;73.20;99278.59;5014455;28;20060;-60
2021/06/02 02:47:22;;;;;;;9.68;6.03;;;;;;;9.52;73.85;99281.03;5012734;28;20037;-60
2021/06/02 02:49:53;;;;;;;8.23;5.75;;;;;;;9.46;73.88;99273.94;4998164;28;20025;-61
2021/06/02 02:52:37;;;;;;;9.90;6.05;;;;;;;9.26;75.19;99272.47;5012687;28;20038;-61
2021/06/02 02:55:14;;;;;;;11.90;5.88;;;;;;;9.24;75.81;99277.22;5013876;28;20040;-61
2021/06/02 02:57:44;;;;;;;6.78;5.88;;;;;;;9.33;74.60;99266.97;5013706;28;20034;-60
2021/06/02 03:00:17;;;;;;;7.45;6.18;;;;;;;9.28;74.29;99273.03;5013817;28;20096;-60
2021/06/02 03:02:49;;;;;;;8.45;6.00;;;;;;;9.27;75.04;99270.59;5013253;28;20037;-60
2021/06/02 03:05:23;;;;;;;8.48;5.82;;;;;;;9.24;73.99;99277.22;4996549;28;20026;-61
2021/06/02 03:07:52;;;;;;;7.25;5.72;;;;;;;9.07;74.93;99270.94;4997674;28;20064;-61
2021/06/02 03:10:18;;;;;;;7.37;6.30;;;;;;;9.04;75.24;99271.41;5012520;28;20109;-60
2021/06/02 03:13:04;;;;;;;6.97;5.90;;;;;;;9.00;75.60;99272.91;5012394;28;20268;-60
2021/06/02 03:15:47;;;;;;;8.77;6.30;;;;;;;9.07;75.94;99276.28;5012496;28;20034;-60
2021/06/02 03:18:15;;;;;;;8.18;6.22;;;;;;;9.07;75.51;99282.44;4996756;28;20037;-60
2021/06/02 03:21:14;;;;;;;13.38;6.55;;;;;;;8.97;76.01;99282.19;5014057;28;20128;-60
2021/06/02 03:23:57;;;;;;;7.75;6.15;;;;;;;9.18;75.83;99280.81;5014178;28;20534;-60
2021/06/02 03:26:26;;;;;;;9.25;6.13;;;;;;;9.19;75.10;99285.13;5013718;28;20050;-60
2021/06/02 03:29:06;;;;;;;9.60;6.75;;;;;;;9.07;74.91;99277.09;5013950;28;20030;-60
2021/06/02 03:32:09;;;;;;;8.10;6.72;;;;;;;9.17;75.54;99287.22;5013513;28;20045;-60
2021/06/02 03:34:42;;;;;;;8.68;6.40;;;;;;;9.17;74.38;99284.53;5013995;28;20026;-60
2021/06/02 03:37:16;;;;;;;9.35;6.32;;;;;;;9.22;74.80;99290.00;5013421;28;20061;-60
2021/06/02 03:39:54;;;;;;;10.50;6.13;;;;;;;9.51;73.92;99287.44;5013956;28;20026;-60
2021/06/02 03:42:57;;;;;;;8.25;5.75;;;;;;;10.81;69.30;99290.56;5012191;28;20117;-60
2021/06/02 03:45:30;;;;;;;7.47;5.70;;;;;;;11.55;65.42;99284.97;5012037;28;20038;-60
2021/06/02 03:48:10;;;;;;;6.75;5.53;;;;;;;10.83;67.19;99293.78;5013940;28;20108;-60
2021/06/02 03:51:02;;;;;;;9.98;5.78;;;;;;;10.07;69.14;99293.16;5013133;28;20037;-60
2021/06/02 03:53:50;;;;;;;8.52;5.65;;;;;;;9.70;70.82;99290.78;5012610;28;20130;-60
2021/06/02 03:56:18;;;;;;;9.95;6.00;;;;;;;9.62;71.80;99283.94;5011740;28;20072;-60
2021/06/02 03:58:50;;;;;;;9.25;5.85;;;;;;;9.52;72.16;99289.06;5013457;28;20042;-60
2021/06/02 04:01:35;;;;;;;10.77;5.90;;;;;;;9.78;71.56;99284.25;4995814;28;20085;-60
2021/06/02 04:04:13;;;;;;;12.27;6.15;;;;;;;10.28;70.44;99295.22;5013357;28;20026;-60
2021/06/02 04:07:05;;;;;;;8.00;6.10;;;;;;;12.23;62.58;99287.44;5011516;28;20563;-61
2021/06/02 04:09:53;;;;;;;7.35;5.70;;;;;;;14.03;56.48;99291.28;5012364;28;20030;-61
2021/06/02 04:12:19;;;;;;;9.18;5.07;;;;;;;15.62;50.87;99296.03;5008945;28;20036;-61
2021/06/02 04:14:55;;;;;;;6.10;4.85;;;;;;;15.85;48.83;99286.53;5012000;28;20084;-61
2021/06/02 04:17:22;;;;;;;6.85;5.10;;;;;;;16.64;46.47;99286.69;5011587;28;20040;-61
2021/06/02 04:19:49;;;;;;;11.65;4.68;;;;;;;16.60;46.91;99289.97;5013502;28;20037;-60
2021/06/02 04:22:15;;;;;;;7.30;4.68;;;;;;;17.72;43.78;99300.94;5012759;28;20483;-61
2021/06/02 04:24:40;;;;;;;8.30;4.50;;;;;;;17.56;44.49;99302.19;5013156;28;20026;-61
2021/06/02 04:27:06;;;;;;;7.00;4.50;;;;;;;18.64;41.81;99305.22;5011896;28;20042;-61
2021/06/02 04:29:31;;;;;;;6.93;3.90;;;;;;;19.17;40.47;99307.72;5013533;28;20029;-60
2021/06/02 04:32:01;;;;;;;8.52;4.40;;;;;;;19.05;40.42;99304.66;5012740;28;20034;-60
2021/06/02 04:34:27;;;;;;;7.95;4.60;;;;;;;19.98;38.10;99307.34;5013183;28;20026;-61
2021/06/02 04:36:56;;;;;;;7.50;4.50;;;;;;;19.84;38.47;99303.81;5012835;28;20117;-61
2021/06/02 04:39:22;;;;;;;11.23;4.38;;;;;;;19.76;38.54;99313.47;5011927;28;20025;-60
2021/06/02 04:41:48;;;;;;;5.80;4.32;;;;;;;19.58;39.00;99301.53;5012769;28;20073;-60
2021/06/02 04:44:15;;;;;;;6.93;4.25;;;;;;;19.11;40.80;99303.44;5013060;28;20538;-60
2021/06/02 04:46:42;;;;;;;6.65;3.88;;;;;;;19.83;39.36;99302.19;5012751;28;20042;-60
2021/06/02 04:49:07;;;;;;;9.13;4.90;;;;;;;20.93;36.48;99312.09;5012960;28;20476;-61
2021/06/02 04:52:00;;;;;;;5.03;3.70;;;;;;;21.36;35.98;99310.78;5012675;28;20041;-61
2021/06/02 04:54:55;;;;;;;5.10;3.95;;;;;;;21.37;35.62;99310.47;5012275;28;20060;-61
2021/06/02 04:57:39;;;;;;;5.32;3.97;;;;;;;21.73;35.19;99313.09;5012498;28;20119;-60
2021/06/02 05:00:23;;;;;;;5.95;4.22;;;;;;;21.76;34.78;99315.19;5012509;28;20049;-61
2021/06/02 05:02:57;;;;;;;7.60;4.07;;;;;;;22.36;34.50;99312.97;5013204;28;20033;-61
2021/06/02 05:05:40;;;;;;;7.95;4.25;;;;;;;21.95;34.39;99308.69;5012507;28;20069;-60
2021/06/02 05:08:05;;;;;;;7.05;4.10;;;;;;;22.55;33.41;99305.31;5013049;28;20030;-61
2021/06/02 05:10:54;;;;;;;7.53;4.05;;;;;;;22.95;33.06;99305.16;5012616;28;20042;-61
2021/06/02 05:13:40;;;;;;;8.35;4.35;;;;;;;22.01;34.77;99310.13;5002652;28;20038;-61
2021/06/02 05:16:06;;;;;;;5.93;4.10;;;;;;;22.88;33.29;99323.94;5012522;28;20038;-61
2021/06/02 05:19:18;;;;;;;9.52;4.65;;;;;;;23.56;32.50;99328.88;5012993;28;20029;-61
2021/06/02 05:22:05;;;;;;;5.25;4.00;;;;;;;24.52;31.04;99327.31;5015958;28;20041;-61
2021/06/02 05:24:51;;;;;;;9.15;4.07;;;;;;;23.67;31.47;99336.41;5016680;28;20072;-61
2021/06/02 05:27:42;;;;;;;6.70;3.80;;;;;;;22.91;33.66;99336.16;5016259;28;20046;-60
2021/06/02 05:30:42;;;;;;;7.80;4.50;;;;;;;24.65;30.19;99339.16;5016327;28;20026;-61
2021/06/02 05:33:19;;;;;;;8.07;4.20;;;;;;;24.17;30.87;99337.66;5016605;28;20084;-61
2021/06/02 05:36:23;;;;;;;7.93;4.30;;;;;;;24.46;30.50;99341.53;5015951;28;20034;-61
2021/06/02 05:39:05;;;;;;;8.95;4.10;;;;;;;24.38;30.71;99345.13;4998817;28;20033;-61
2021/06/02 05:41:40;;;;;;;7.60;4.07;;;;;;;24.44;30.27;99341.88;5016034;28;20038;-61
2021/06/02 05:44:33;;;;;;;7.22;4.15;;;;;;;24.82;30.19;99335.50;5016379;28;20373;-60
2021/06/02 05:47:16;;;;;;;7.53;4.30;;;;;;;25.01;29.64;99337.75;5015964;28;20046;-60
2021/06/02 05:49:54;;;;;;;6.60;4.13;;;;;;;25.00;29.91;99335.34;5015018;28;20080;-60
2021/06/02 05:52:38;;;;;;;6.03;4.20;;;;;;;25.58;29.16;99342.53;5015915;28;20460;-60
2021/06/02 05:55:37;;;;;;;7.18;4.15;;;;;;;25.93;29.01;99338.59;5015863;28;20100;-60
2021/06/02 05:58:27;;;;;;;10.35;4.40;;;;;;;24.95;31.10;99350.06;5015919;28;20029;-61
2021/06/02 06:01:20;;;;;;;7.32;4.55;;;;;;;25.51;31.15;99356.03;5015525;28;20522;-60
2021/06/02 06:04:09;;;;;;;11.65;4.35;;;;;;;26.63;28.73;99347.53;5016321;28;20116;-60
2021/06/02 06:06:43;;;;;;;;;;;;;;;26.06;29.49;99344.91;4998366;28;20111;-60
2021/06/02 06:09:46;;;;;;;24.48;5.65;;;;;;;25.48;30.29;99347.66;5015808;28;20375;-60
2021/06/02 06:12:50;;;;;;;22.63;5.97;;;;;;;26.09;29.74;99338.75;5014278;28;20527;-61
2021/06/02 06:15:31;;;;;;;19.38;6.32;;;;;;;26.60;28.72;99341.91;5004051;28;20445;-60
2021/06/02 06:18:24;;;;;;;21.60;5.70;;;;;;;26.94;28.24;99343.31;5015967;28;20025;-61
2021/06/02 06:20:58;;;;;;;31.02;6.47;;;;;;;26.49;29.45;99347.06;5015511;28;20037;-61
2021/06/02 06:23:29;;;;;;;32.15;6.22;;;;;;;27.46;27.10;99338.88;5015633;28;20030;-61
2021/06/02 06:26:21;;;;;;;30.05;6.13;;;;;;;27.29;27.79;99340.78;5015166;28;20034;-61
2021/06/02 06:29:14;;;;;;;33.53;6.10;;;;;;;27.47;27.85;99343.22;5014009;28;20037;-61
2021/06/02 06:31:41;;;;;;;28.42;5.93;;;;;;;26.92;29.24;99337.34;5013872;28;20049;-61
2021/06/02 06:34:09;;;;;;;37.90;7.35;;;;;;;26.62;30.18;99345.13;4981490;28;20435;-61
2021/06/02 06:36:34;;;;;;;37.73;7.10;;;;;;;28.10;27.52;99345.22;5014732;28;20128;-61
2021/06/02 06:39:16;;;;;;;33.47;6.88;;;;;;;28.34;27.10;99355.22;5014075;28;20036;-61
2021/06/02 06:41:42;;;;;;;39.40;7.65;;;;;;;28.60;26.73;99352.69;5014696;28;20124;-61
2021/06/02 06:44:07;;;;;;;40.13;7.85;;;;;;;28.15;27.45;99347.69;5015206;28;20029;-61
2021/06/02 06:46:33;;;;;;;32.63;6.65;;;;;;;28.59;26.38;99344.81;5013114;28;20042;-61
2021/06/02 06:48:59;;;;;;;23.88;7.00;;;;;;;27.14;28.23;99337.97;4997456;28;20026;-61
2021/06/02 06:51:25;;;;;;;36.17;6.95;;;;;;;28.34;26.52;99338.69;5013346;28;20041;-61
2021/06/02 06:53:51;;;;;;;21.30;6.40;;;;;;;26.27;29.80;99340.09;5014818;28;20018;-61
2021/06/02 06:56:17;;;;;;;18.23;5.43;;;;;;;28.28;26.70;99340.13;4996812;28;20050;-61
2021/06/02 06:58:43;;;;;;;17.85;5.85;;;;;;;28.93;25.51;99351.44;5014727;28;20049;-61
2021/06/02 07:01:09;;;;;;;20.77;5.80;;;;;;;28.74;25.79;99340.41;5014366;28;20048;-62
2021/06/02 07:03:34;;;;;;;22.90;6.13;;;;;;;29.41;24.68;99349.25;4997603;28;20030;-61
2021/06/02 07:06:03;;;;;;;26.15;6.75;;;;;;;29.24;25.58;99349.72;4996358;28;20449;-61
2021/06/02 07:08:30;;;;;;;19.48;6.30;;;;;;;30.00;24.97;99349.09;5013583;28;20446;-62
2021/06/02 07:10:58;;;;;;;22.42;5.82;;;;;;;28.48;27.05;99343.75;5013100;28;20392;-61
2021/06/02 07:13:24;;;;;;;26.45;5.97;;;;;;;28.59;26.87;99345.59;5012758;28;20018;-60
2021/06/02 07:15:49;;;;;;;21.60;6.32;;;;;;;29.15;25.98;99349.13;5013023;28;20084;-60
2021/06/02 07:18:18;;;;;;;24.67;6.20;;;;;;;29.13;26.42;99352.28;5013517;28;20273;-61
2021/06/02 07:20:43;;;;;;;26.83;6.95;;;;;;;28.64;27.42;99352.00;4996921;28;20044;-62
2021/06/02 07:23:09;;;;;;;31.25;7.10;;;;;;;29.63;26.11;99347.69;4997172;28;20468;-62
2021/06/02 07:25:38;;;;;;;24.02;6.82;;;;;;;29.87;25.83;99346.53;4996247;28;20042;-62
2021/06/02 07:28:07;;;;;;;27.42;7.03;;;;;;;29.08;27.10;99343.47;5012946;28;20475;-62
2021/06/02 07:30:32;;;;;;;25.20;7.00;;;;;;;30.00;25.40;99349.88;4996828;28;20042;-62
2021/06/02 07:32:57;;;;;;;18.27;6.22;;;;;;;29.14;26.30;99342.03;4996789;28;20373;-61
2021/06/02 07:35:23;;;;;;;28.45;7.50;;;;;;;26.58;30.54;99349.69;5012455;28;20393;-62
2021/06/02 07:37:49;;;;;;;32.50;7.55;;;;;;;27.66;28.75;99346.09;5014135;28;20380;-62
2021/06/02 07:40:15;;;;;;;28.60;7.53;;;;;;;28.43;27.83;99346.75;5013550;28;20022;-62
2021/06/02 07:42:41;;;;;;;34.13;7.30;;;;;;;28.84;27.46;99348.09;5013638;28;20022;-62
2021/06/02 07:45:06;;;;;;;24.58;6.95;;;;;;;29.84;25.53;99347.28;5013359;28;20029;-61
2021/06/02 07:47:32;;;;;;;24.25;7.10;;;;;;;29.80;25.98;99346.41;5013898;28;20026;-61
2021/06/02 07:49:57;;;;;;;38.42;6.95;;;;;;;30.61;24.34;99348.06;5014079;28;20107;-62
2021/06/02 07:52:26;;;;;;;28.10;6.97;;;;;;;29.50;25.43;99346.25;5012029;28;20030;-62
2021/06/02 07:54:51;;;;;;;28.92;7.53;;;;;;;29.89;25.64;99343.41;5013725;28;20153;-61
2021/06/02 07:57:17;;;;;;;31.52;7.32;;;;;;;28.29;28.35;99347.25;5012078;28;20496;-60
2021/06/02 07:59:42;;;;;;;27.13;6.82;;;;;;;30.36;25.21;99339.44;5013294;28;20038;-62
2021/06/02 08:02:07;;;;;;;24.02;7.20;;;;;;;30.09;26.09;99346.88;5013265;28;20041;-61
2021/06/02 08:04:33;;;;;;;33.67;6.68;;;;;;;29.30;27.37;99345.47;5013882;28;20033;-61
2021/06/02 08:07:00;;;;;;;32.67;7.32;;;;;;;30.04;26.86;99345.22;5013366;28;20038;-61
2021/06/02 08:09:26;;;;;;;23.50;6.88;;;;;;;30.78;25.92;99337.59;5013757;28;20053;-61
2021/06/02 08:11:52;;;;;;;25.77;6.93;;;;;;;31.22;24.34;99337.78;5013072;28;20061;-61
2021/06/02 08:14:17;;;;;;;26.52;7.20;;;;;;;31.39;24.86;99341.94;5013290;28;20464;-61
2021/06/02 08:16:42;;;;;;;32.50;6.70;;;;;;;31.13;25.58;99338.09;5013054;28;20042;-61
2021/06/02 08:19:08;;;;;;;27.45;7.13;;;;;;;31.19;24.36;99337.75;5012162;28;20084;-61
2021/06/02 08:21:34;;;;;;;30.75;7.00;;;;;;;31.06;24.74;99338.00;5013011;28;20096;-61
2021/06/02 08:24:00;;;;;;;31.83;7.13;;;;;;;30.51;24.72;99345.97;5013335;28;20025;-61
2021/06/02 08:26:25;;;;;;;25.38;6.05;;;;;;;29.71;26.37;99345.88;5013081;28;20029;-61
2021/06/02 08:28:51;;;;;;;29.73;6.68;;;;;;;30.17;26.17;99343.06;5013428;28;20052;-61
2021/06/02 08:31:16;;;;;;;32.65;6.60;;;;;;;30.92;25.97;99348.88;5012830;28;20065;-61
2021/06/02 08:33:43;;;;;;;34.22;7.07;;;;;;;30.36;27.05;99347.72;5013280;28;20033;-61
2021/06/02 08:36:09;;;;;;;48.53;8.25;;;;;;;30.40;26.97;99343.03;5012954;28;20034;-61
2021/06/02 08:38:34;;;;;;;36.58;6.88;;;;;;;30.07;27.79;99338.94;5013381;28;20026;-61
2021/06/02 08:41:00;;;;;;;49.78;7.20;;;;;;;30.57;26.55;99338.13;5012758;28;20519;-61
2021/06/02 08:43:25;;;;;;;18.27;5.03;;;;;;;28.86;23.83;99336.72;4995491;28;20025;-61
2021/06/02 08:45:51;;;;;;;21.77;5.32;;;;;;;29.75;26.73;99335.66;5011370;28;20080;-61
2021/06/02 08:48:16;;;;;;;11.75;4.30;;;;;;;29.07;24.49;99336.38;4995279;28;20037;-61
2021/06/02 08:50:41;;;;;;;13.68;4.15;;;;;;;29.82;22.81;99332.22;5012726;28;20484;-61
2021/06/02 08:53:07;;;;;;;10.60;3.80;;;;;;;28.45;23.11;99333.44;5011624;28;20026;-61
2021/06/02 08:55:32;;;;;;;11.18;4.13;;;;;;;25.82;27.63;99324.50;4998132;28;20041;-60
2021/06/02 08:57:58;;;;;;;12.10;4.95;;;;;;;26.67;25.86;99328.38;5016815;28;20120;-60
2021/06/02 09:00:24;;;;;;;10.85;4.85;;;;;;;26.04;26.17;99323.28;4999213;28;20443;-60
2021/06/02 09:02:53;;;;;;;9.07;4.07;;;;;;;24.87;27.72;99326.28;5017119;28;20529;-59
2021/06/02 09:05:18;;;;;;;;;;;;;;;24.93;27.65;99322.16;5017010;28;20026;-59
2021/06/02 09:07:44;;;;;;;10.57;4.53;;;;;;;24.69;27.00;99329.16;5016752;28;19921;-59
2021/06/02 09:10:11;;;;;;;5.75;3.70;;;;;;;25.93;26.24;99320.19;4998927;28;20030;-60
2021/06/02 09:12:40;;;;;;;6.78;3.47;;;;;;;24.48;27.57;99325.59;5016927;28;20022;-61
2021/06/02 09:15:16;;;;;;;9.25;4.05;;;;;;;27.36;23.99;99323.69;5016400;28;20128;-60
2021/06/02 09:17:49;;;;;;;6.85;4.22;;;;;;;25.90;25.61;99331.06;5016194;28;20021;-60
2021/06/02 09:20:37;;;;;;;8.55;3.50;;;;;;;24.95;26.34;99333.59;5016356;28;20025;-60
2021/06/02 09:23:43;;;;;;;12.57;3.70;;;;;;;26.87;24.98;99323.84;5016379;28;20518;-60
2021/06/02 09:26:14;;;;;;;8.45;3.70;;;;;;;25.09;26.22;99325.91;5015143;28;20132;-60
2021/06/02 09:28:49;;;;;;;5.82;3.50;;;;;;;24.73;28.30;99327.31;5016498;28;20065;-60
2021/06/02 09:31:26;;;;;;;9.35;4.00;;;;;;;26.76;25.18;99329.06;5016040;28;20041;-60
2021/06/02 09:33:56;;;;;;;11.98;4.22;;;;;;;24.70;27.30;99319.78;5016364;28;20033;-60
2021/06/02 09:36:26;;;;;;;;;;;;;;;25.16;27.82;99315.22;5016328;28;20373;-60
2021/06/02 09:38:55;;;;;;;7.90;3.25;;;;;;;24.23;27.09;99311.69;5016236;28;19910;-60
2021/06/02 09:41:21;;;;;;;12.27;3.57;;;;;;;25.18;26.28;99317.63;5015968;28;20072;-60
2021/06/02 09:43:46;;;;;;;7.88;3.78;;;;;;;26.31;26.02;99319.03;5015907;28;20108;-60
2021/06/02 09:46:16;;;;;;;11.60;3.97;;;;;;;26.14;25.63;99322.84;5015813;28;20030;-60
2021/06/02 09:48:51;;;;;;;22.70;4.88;;;;;;;25.14;27.82;99322.97;5016557;28;20026;-61
2021/06/02 09:51:32;;;;;;;7.88;4.07;;;;;;;24.79;26.14;99316.16;5014517;28;20038;-60
2021/06/02 09:53:59;;;;;;;5.53;3.42;;;;;;;25.71;26.17;99304.94;5015837;28;20405;-60
2021/06/02 09:56:41;;;;;;;8.75;3.88;;;;;;;24.59;27.03;99321.31;5015535;28;20077;-60
2021/06/02 09:59:11;;;;;;;6.75;3.63;;;;;;;25.20;26.89;99315.34;5015708;28;20058;-60
2021/06/02 10:01:54;;;;;;;6.82;4.15;;;;;;;24.71;26.44;99315.09;5015413;28;20034;-60
2021/06/02 10:04:38;;;;;;;9.90;3.60;;;;;;;24.60;25.71;99339.38;5015918;28;20103;-60
2021/06/02 10:07:04;;;;;;;7.88;3.38;;;;;;;24.24;25.77;99313.31;5015534;28;20057;-60
2021/06/02 10:09:33;;;;;;;10.48;4.07;;;;;;;24.28;24.93;99319.72;5015715;28;20480;-60
2021/06/02 10:12:04;;;;;;;13.82;4.10;;;;;;;24.82;25.12;99321.00;5015489;28;20130;-60
2021/06/02 10:14:30;;;;;;;7.68;3.80;;;;;;;24.62;26.62;99328.88;5015651;28;20063;-60
2021/06/02 10:16:55;;;;;;;9.90;3.95;;;;;;;24.71;25.97;99321.41;5013707;28;20127;-60
2021/06/02 10:19:43;;;;;;;9.48;3.95;;;;;;;25.03;27.17;99321.75;5014369;28;20468;-60
2021/06/02 10:22:39;;;;;;;7.35;3.70;;;;;;;25.13;25.52;99326.03;5015377;28;20034;-60
2021/06/02 10:25:06;;;;;;;6.57;4.00;;;;;;;24.42;26.56;99315.94;5010684;28;20057;-60
2021/06/02 10:27:32;;;;;;;7.40;3.67;;;;;;;24.63;26.48;99325.00;5015357;28;20022;-60
2021/06/02 10:29:57;;;;;;;6.80;3.70;;;;;;;23.81;28.75;99328.03;5015724;28;20022;-60
2021/06/02 10:32:23;;;;;;;6.28;3.78;;;;;;;25.20;26.02;99325.53;5014945;28;20582;-61
2021/06/02 10:34:51;;;;;;;5.75;3.70;;;;;;;25.12;24.84;99330.72;5015544;28;20030;-61
2021/06/02 10:37:17;;;;;;;6.50;3.80;;;;;;;25.15;25.27;99321.00;5013693;28;20205;-59
2021/06/02 10:40:04;;;;;;;7.20;3.55;;;;;;;24.33;25.34;99338.69;5015294;28;20026;-60
2021/06/02 10:42:36;;;;;;;6.55;3.78;;;;;;;25.16;26.63;99331.69;5014177;28;20045;-60
2021/06/02 10:45:07;;;;;;;4.82;3.40;;;;;;;24.96;24.56;99330.53;5013733;28;20029;-60
2021/06/02 10:47:33;;;;;;;11.95;3.72;;;;;;;24.13;27.57;99327.69;5013822;28;20032;-60
2021/06/02 10:49:58;;;;;;;6.78;3.67;;;;;;;25.22;24.13;99336.97;5013800;28;20030;-61
2021/06/02 10:52:41;;;;;;;7.43;4.00;;;;;;;25.53;24.34;99318.03;4996843;28;20037;-60
2021/06/02 10:55:39;;;;;;;6.70;3.33;;;;;;;25.32;25.77;99320.06;5014716;28;20080;-60
2021/06/02 10:58:24;;;;;;;7.32;3.83;;;;;;;25.13;26.45;99324.06;4992694;28;20041;-60
2021/06/02 11:00:52;;;;;;;7.65;3.88;;;;;;;23.90;25.62;99326.03;5014273;28;20065;-60
2021/06/02 11:03:25;;;;;;;5.78;3.42;;;;;;;24.99;25.54;99320.84;5013647;28;20321;-60
2021/06/02 11:05:58;;;;;;;7.65;3.45;;;;;;;25.21;25.33;99316.97;5014208;28;20057;-61
2021/06/02 11:08:45;;;;;;;6.20;3.42;;;;;;;25.51;23.72;99325.03;5014587;28;20022;-61
2021/06/02 11:11:24;;;;;;;5.55;3.50;;;;;;;25.55;22.96;99318.50;5014039;28;20038;-60
2021/06/02 11:14:18;;;;;;;7.50;3.60;;;;;;;26.55;24.43;99315.47;5013421;28;20029;-60
2021/06/02 11:16:53;;;;;;;12.68;4.03;;;;;;;25.11;25.18;99309.94;5013277;28;20049;-60
2021/06/02 11:19:42;;;;;;;11.65;3.47;;;;;;;25.05;24.40;99305.78;5011145;28;20480;-61
2021/06/02 11:22:08;;;;;;;8.97;3.77;;;;;;;25.21;24.00;99305.16;5014009;28;20030;-60
2021/06/02 11:24:37;;;;;;;8.27;3.42;;;;;;;25.36;23.84;99310.00;5014311;28;20667;-60
2021/06/02 11:27:14;;;;;;;11.45;3.88;;;;;;;25.28;24.58;99305.41;5012447;28;20117;-60
2021/06/02 11:29:51;;;;;;;7.30;3.28;;;;;;;24.80;24.56;99306.81;5014073;28;20400;-61
2021/06/02 11:32:29;;;;;;;6.18;3.38;;;;;;;24.90;25.20;99300.91;5013455;28;20030;-60
2021/06/02 11:34:56;;;;;;;5.20;3.60;;;;;;;24.48;25.15;99306.41;5014000;28;20068;-61
2021/06/02 11:37:25;;;;;;;6.70;3.25;;;;;;;25.21;25.16;99308.75;5013546;28;20034;-61
2021/06/02 11:39:53;;;;;;;9.68;3.45;;;;;;;24.66;25.96;99313.38;5014136;28;20026;-60
2021/06/02 11:42:39;;;;;;;6.63;3.60;;;;;;;25.67;23.58;99304.03;5013459;28;20038;-61
2021/06/02 11:45:07;;;;;;;8.70;3.85;;;;;;;25.08;25.34;99307.84;5013377;28;20022;-63
2021/06/02 11:47:33;;;;;;;7.72;3.47;;;;;;;25.88;25.18;99303.94;5013837;28;20030;-60
2021/06/02 11:50:10;;;;;;;5.95;3.28;;;;;;;25.05;25.93;99299.50;5013987;28;20065;-60
2021/06/02 11:52:36;;;;;;;6.72;3.35;;;;;;;25.44;23.74;99306.38;5013549;28;20549;-60
2021/06/02 11:55:14;;;;;;;7.65;3.70;;;;;;;25.01;24.87;99296.63;5013215;28;20037;-60
2021/06/02 11:57:40;;;;;;;8.00;3.58;;;;;;;25.43;24.51;99312.22;5014011;28;20018;-60
2021/06/02 12:00:25;;;;;;;13.07;4.32;;;;;;;24.80;25.78;99296.66;5013035;28;20054;-59
2021/06/02 12:02:52;;;;;;;7.63;3.67;;;;;;;24.72;25.45;99301.06;5013697;28;20104;-60
2021/06/02 12:05:30;;;;;;;12.20;3.63;;;;;;;25.44;25.41;99303.66;5013079;28;20037;-60